Aberdeen, Mississippi
Current Conditions -  °F | °C
As of 1:35 PM on Saturday 20 Dec 2014 (Local Time) from KM40 Reporting Station
Clear Clear  
Wind Chill: 15°   Ceiling: Unl
Heat Index: 15°   Visibility: 8mi
Dew Point:   Wind: 6mph
Humidity: 55%   Direction: 10°N
Pressure: 30.2"   Gusts: NA
Location:  33.82°N, 88.54°W
Report Text: KM40 201935Z AUTO 01005KT 8SM CLR 15/06 A3020 RMK AO2
Loading
Personal Weather Stations






























Interactive Weather Map New forecast layout! Learn more

10-Day Weather Forecast

Advertisements
Track Severe Weather on mobile